createdAt,value
2022-08-25T00:00:10.063Z,39.20
2022-08-25T00:02:37.916Z,38.93
2022-08-25T00:05:06.767Z,38.53
2022-08-25T00:07:36.405Z,38.26
2022-08-25T00:10:06.564Z,37.69
2022-08-25T00:12:34.463Z,38.21
2022-08-25T00:15:02.304Z,38.12
2022-08-25T00:17:30.148Z,38.46
2022-08-25T00:19:57.967Z,40.07
2022-08-25T00:22:25.719Z,40.33
2022-08-25T00:24:53.643Z,41.62
2022-08-25T00:27:23.582Z,40.87
2022-08-25T00:29:51.343Z,39.73
2022-08-25T00:32:19.321Z,39.70
2022-08-25T00:34:47.207Z,41.79
2022-08-25T00:37:15.787Z,40.67
2022-08-25T00:39:43.540Z,40.12
2022-08-25T00:42:11.787Z,40.07
2022-08-25T00:44:45.482Z,39.64
2022-08-25T00:47:13.503Z,39.67
2022-08-25T00:49:46.084Z,39.30
2022-08-25T00:52:17.106Z,39.29
2022-08-25T00:54:48.709Z,39.25
2022-08-25T00:57:19.182Z,39.74
2022-08-25T00:59:58.846Z,38.81
2022-08-25T01:02:26.993Z,38.73
2022-08-25T01:04:54.908Z,38.85
2022-08-25T01:07:23.928Z,38.97
2022-08-25T01:09:53.850Z,38.99
2022-08-25T01:12:22.701Z,38.49
2022-08-25T01:14:52.352Z,38.11
2022-08-25T01:17:22.166Z,38.46
2022-08-25T01:19:49.937Z,38.48
2022-08-25T01:22:19.173Z,38.68
2022-08-25T01:24:53.743Z,39.45
2022-08-25T01:27:21.525Z,39.69
2022-08-25T01:29:49.306Z,40.21
2022-08-25T01:32:17.537Z,40.49
2022-08-25T01:34:46.781Z,39.78
2022-08-25T01:37:19.078Z,39.55
2022-08-25T01:39:48.751Z,39.22
2022-08-25T01:42:29.145Z,39.40
2022-08-25T01:44:57.539Z,39.44
2022-08-25T01:47:25.387Z,39.11
2022-08-25T01:49:53.230Z,39.27
2022-08-25T01:52:24.602Z,39.36
2022-08-25T01:54:53.796Z,39.37
2022-08-25T01:57:22.285Z,40.01
2022-08-25T01:59:50.149Z,39.06
2022-08-25T02:02:18.305Z,39.59
2022-08-25T02:04:47.702Z,39.36
2022-08-25T02:07:15.993Z,39.87
2022-08-25T02:09:44.254Z,39.75
2022-08-25T02:12:13.558Z,39.67
2022-08-25T02:14:41.600Z,39.85
2022-08-25T02:17:09.736Z,39.85
2022-08-25T02:19:37.724Z,40.23
2022-08-25T02:22:06.732Z,40.39
2022-08-25T02:24:34.902Z,40.55
2022-08-25T02:27:04.003Z,40.21
2022-08-25T02:29:34.039Z,41.54
2022-08-25T02:32:01.965Z,41.13
2022-08-25T02:34:29.802Z,41.01
2022-08-25T02:36:57.542Z,40.46
2022-08-25T02:39:25.386Z,40.18
2022-08-25T02:41:53.231Z,42.11
2022-08-25T02:44:20.986Z,42.05
2022-08-25T02:46:50.204Z,42.80
2022-08-25T02:49:18.628Z,40.98
2022-08-25T02:51:46.387Z,40.82
2022-08-25T02:54:14.174Z,41.07
2022-08-25T02:56:42.757Z,41.63
2022-08-25T02:59:12.108Z,42.36
2022-08-25T03:01:40.007Z,42.02
2022-08-25T03:04:09.218Z,41.33
2022-08-25T03:06:37.115Z,41.24
2022-08-25T03:09:05.101Z,42.41
2022-08-25T03:11:33.473Z,41.37
2022-08-25T03:14:01.225Z,41.49
2022-08-25T03:16:29.058Z,41.64
2022-08-25T03:18:57.900Z,43.36
2022-08-25T03:21:27.617Z,43.39
2022-08-25T03:23:55.844Z,42.28
2022-08-25T03:26:42.030Z,42.01
2022-08-25T03:29:10.508Z,42.33
2022-08-25T03:31:38.973Z,42.44
2022-08-25T03:34:07.072Z,43.34
2022-08-25T03:36:36.221Z,43.07
2022-08-25T03:39:06.025Z,43.16
2022-08-25T03:41:33.896Z,45.60
2022-08-25T03:44:03.318Z,46.33
2022-08-25T03:46:33.696Z,46.61
2022-08-25T03:49:03.181Z,46.21
2022-08-25T03:51:32.893Z,48.50
2022-08-25T03:54:04.591Z,47.66
2022-08-25T03:56:32.613Z,48.34
2022-08-25T03:59:00.630Z,48.96
2022-08-25T04:01:29.122Z,47.62
2022-08-25T04:03:57.302Z,48.15
2022-08-25T04:06:25.345Z,50.08
2022-08-25T04:08:53.491Z,49.89
2022-08-25T04:11:24.130Z,49.31
2022-08-25T04:13:53.347Z,49.91
2022-08-25T04:16:23.754Z,50.23
2022-08-25T04:18:53.445Z,48.84
2022-08-25T04:21:22.700Z,49.67
2022-08-25T04:23:51.338Z,51.37
2022-08-25T04:26:24.064Z,52.42
2022-08-25T04:28:51.892Z,54.52
2022-08-25T04:31:21.804Z,50.37
2022-08-25T04:33:50.385Z,51.29
2022-08-25T04:36:19.621Z,50.43
2022-08-25T04:38:49.540Z,48.66
2022-08-25T04:41:19.815Z,48.88
2022-08-25T04:43:49.275Z,48.83
2022-08-25T04:46:20.783Z,47.50
2022-08-25T04:48:50.109Z,47.74
2022-08-25T04:51:23.313Z,47.48
2022-08-25T04:53:51.887Z,45.95
2022-08-25T04:56:21.951Z,45.05
2022-08-25T04:58:51.766Z,44.92
2022-08-25T05:01:22.099Z,45.55
2022-08-25T05:03:55.410Z,45.20
2022-08-25T05:06:23.382Z,46.89
2022-08-25T05:08:51.388Z,47.68
2022-08-25T05:11:20.326Z,47.72
2022-08-25T05:13:54.828Z,46.53
2022-08-25T05:16:23.783Z,46.67
2022-08-25T05:18:52.282Z,45.99
2022-08-25T05:21:22.259Z,44.97
2022-08-25T05:23:50.256Z,47.92
2022-08-25T05:26:21.186Z,48.33
2022-08-25T05:28:53.270Z,49.35
2022-08-25T05:31:22.490Z,50.08
2022-08-25T05:33:51.873Z,51.14
2022-08-25T05:36:21.065Z,51.20
2022-08-25T05:38:49.510Z,50.67
2022-08-25T05:41:19.400Z,48.98
2022-08-25T05:43:49.796Z,49.17
2022-08-25T05:46:21.125Z,48.38
2022-08-25T05:48:49.582Z,48.30
2022-08-25T05:51:17.771Z,47.94
2022-08-25T05:53:47.469Z,47.57
2022-08-25T05:56:15.682Z,47.41
2022-08-25T05:58:44.931Z,48.43
2022-08-25T06:01:40.724Z,48.83
2022-08-25T06:04:13.104Z,50.10
2022-08-25T06:06:41.342Z,48.00
2022-08-25T06:09:10.383Z,47.26
2022-08-25T06:11:39.683Z,47.36
2022-08-25T06:14:08.711Z,46.46
2022-08-25T06:16:38.767Z,46.75
2022-08-25T06:19:07.688Z,47.21
2022-08-25T06:21:35.589Z,46.17
2022-08-25T06:24:03.694Z,46.35
2022-08-25T06:26:31.746Z,47.69
2022-08-25T06:28:59.555Z,47.53
2022-08-25T06:31:27.386Z,46.03
2022-08-25T06:33:58.109Z,47.14
2022-08-25T06:36:28.232Z,46.62
2022-08-25T06:38:55.932Z,45.67
2022-08-25T06:41:25.331Z,44.77
2022-08-25T06:44:05.474Z,45.33
2022-08-25T06:46:36.404Z,44.37
2022-08-25T06:49:08.045Z,44.42
2022-08-25T06:51:36.799Z,45.31
2022-08-25T06:54:06.307Z,43.89
2022-08-25T06:56:35.056Z,42.24
2022-08-25T06:59:03.239Z,43.95
2022-08-25T07:01:32.421Z,41.73
2022-08-25T07:04:02.888Z,42.00
2022-08-25T07:06:35.332Z,40.21
2022-08-25T07:09:04.658Z,43.41
2022-08-25T07:11:34.306Z,44.07
2022-08-25T07:14:02.908Z,42.36
2022-08-25T07:16:31.590Z,41.04
2022-08-25T07:19:00.616Z,41.40
2022-08-25T07:21:35.710Z,40.07
2022-08-25T07:24:06.911Z,40.76
2022-08-25T07:26:38.479Z,38.53
2022-08-25T07:29:10.489Z,39.54
2022-08-25T07:31:38.971Z,39.82
2022-08-25T07:34:25.575Z,38.33
2022-08-25T07:36:56.146Z,42.43
2022-08-25T07:39:24.513Z,40.85
2022-08-25T07:41:53.369Z,37.83
2022-08-25T07:44:22.822Z,36.41
2022-08-25T07:46:51.101Z,37.24
2022-08-25T07:49:23.454Z,38.95
2022-08-25T07:52:04.310Z,36.96
2022-08-25T07:54:38.135Z,38.51
2022-08-25T07:57:08.298Z,36.35
2022-08-25T07:59:39.296Z,35.26
2022-08-25T08:02:17.604Z,33.75
2022-08-25T08:04:48.739Z,34.87
2022-08-25T08:07:18.875Z,35.70
2022-08-25T08:09:56.197Z,36.89
2022-08-25T08:12:34.585Z,36.29
2022-08-25T08:15:04.823Z,35.15
2022-08-25T08:17:39.175Z,36.50
2022-08-25T08:20:08.882Z,35.87
2022-08-25T08:22:37.351Z,34.13
2022-08-25T08:25:10.489Z,34.30
2022-08-25T08:27:39.512Z,37.40
2022-08-25T08:30:08.380Z,38.03
2022-08-25T08:32:53.668Z,39.67
2022-08-25T08:35:24.504Z,37.38
2022-08-25T08:37:53.799Z,37.85
2022-08-25T08:40:24.740Z,36.16
2022-08-25T08:43:06.965Z,33.83
2022-08-25T08:45:51.927Z,32.71
2022-08-25T08:48:45.544Z,33.59
2022-08-25T08:51:20.653Z,35.83
2022-08-25T08:53:57.418Z,32.75
2022-08-25T08:56:31.533Z,30.73
2022-08-25T08:59:06.183Z,30.46
2022-08-25T09:01:36.984Z,30.24
2022-08-25T09:04:10.989Z,32.90
2022-08-25T09:06:43.954Z,31.10
2022-08-25T09:09:15.372Z,29.60
2022-08-25T09:11:58.494Z,32.62
2022-08-25T09:14:39.857Z,31.17
2022-08-25T09:17:17.431Z,29.12
2022-08-25T09:20:18.947Z,30.48
2022-08-25T09:22:55.525Z,28.50
2022-08-25T09:28:26.762Z,31.69
2022-08-25T09:31:00.407Z,28.38
2022-08-25T09:33:31.230Z,28.08
2022-08-25T09:36:04.607Z,27.26
2022-08-25T09:38:34.946Z,28.90
2022-08-25T09:41:03.298Z,28.71
2022-08-25T09:43:35.601Z,26.84
2022-08-25T09:46:11.358Z,28.50
2022-08-25T09:48:46.466Z,26.28
2022-08-25T09:51:22.430Z,25.57
2022-08-25T09:53:55.788Z,23.92
2022-08-25T09:56:26.113Z,25.13
2022-08-25T09:59:03.101Z,29.00
2022-08-25T10:01:34.806Z,29.51
2022-08-25T10:04:05.492Z,27.74
2022-08-25T10:06:43.134Z,25.85
2022-08-25T10:09:23.949Z,29.18
2022-08-25T10:11:52.578Z,25.57
2022-08-25T10:14:35.055Z,23.89
2022-08-25T10:17:16.105Z,26.66
2022-08-25T10:19:44.925Z,24.94
2022-08-25T10:22:21.492Z,25.01
2022-08-25T10:24:50.179Z,24.96
2022-08-25T10:27:29.140Z,24.23
2022-08-25T10:30:13.537Z,23.43
2022-08-25T10:32:54.854Z,25.82
2022-08-25T10:35:28.009Z,24.06
2022-08-25T10:38:09.674Z,26.34
2022-08-25T10:40:44.963Z,24.40
2022-08-25T10:43:25.675Z,25.44
2022-08-25T10:46:06.594Z,19.78
2022-08-25T10:48:51.162Z,18.54
2022-08-25T10:51:33.866Z,21.02
2022-08-25T10:54:08.813Z,20.40
2022-08-25T10:56:41.417Z,20.87
2022-08-25T10:59:31.575Z,19.00
2022-08-25T11:02:29.091Z,21.19
2022-08-25T11:05:02.634Z,22.73
2022-08-25T11:07:34.301Z,23.37
2022-08-25T11:10:07.492Z,23.51
2022-08-25T11:12:39.983Z,23.31
2022-08-25T11:15:14.035Z,21.63
2022-08-25T11:17:50.480Z,22.65
2022-08-25T11:20:26.998Z,22.30
2022-08-25T11:23:03.143Z,20.72
2022-08-25T11:25:38.405Z,21.64
2022-08-25T11:28:14.363Z,20.06
2022-08-25T11:30:43.030Z,20.19
2022-08-25T11:33:15.756Z,22.36
2022-08-25T11:35:52.197Z,22.84
2022-08-25T11:38:35.229Z,21.56
2022-08-25T11:41:15.222Z,19.00
2022-08-25T11:44:02.991Z,18.63
2022-08-25T11:46:45.994Z,16.61
2022-08-25T11:49:25.380Z,17.52
2022-08-25T11:51:53.787Z,16.22
2022-08-25T11:54:26.424Z,15.76
2022-08-25T11:57:00.113Z,17.67
2022-08-25T12:00:05.031Z,19.02
2022-08-25T12:02:37.402Z,18.06
2022-08-25T12:05:09.852Z,18.03
2022-08-25T12:08:13.934Z,17.86
2022-08-25T12:11:07.231Z,17.74
2022-08-25T12:13:47.428Z,18.78
2022-08-25T12:16:39.127Z,21.34
2022-08-25T12:19:26.989Z,23.29
2022-08-25T12:21:59.505Z,21.78
2022-08-25T12:24:53.846Z,21.79
2022-08-25T12:27:28.578Z,19.74
2022-08-25T12:30:06.086Z,18.90
2022-08-25T12:32:58.376Z,17.34
2022-08-25T12:35:32.036Z,19.71
2022-08-25T12:38:05.778Z,18.72
2022-08-25T12:40:39.082Z,20.22
2022-08-25T12:43:21.532Z,18.34
2022-08-25T12:45:54.729Z,18.19
2022-08-25T12:48:43.831Z,17.74
2022-08-25T12:51:19.495Z,17.70
2022-08-25T12:53:53.261Z,20.41
2022-08-25T12:56:29.423Z,19.45
2022-08-25T12:59:12.252Z,20.34
2022-08-25T13:01:55.923Z,20.51
2022-08-25T13:05:08.500Z,22.24
2022-08-25T13:07:57.594Z,22.40
2022-08-25T13:10:46.010Z,19.57
2022-08-25T13:13:32.368Z,19.99
2022-08-25T13:16:02.419Z,19.04
2022-08-25T13:18:32.552Z,19.02
2022-08-25T13:21:09.375Z,20.52
2022-08-25T13:23:41.845Z,21.58
2022-08-25T13:26:15.231Z,21.76
2022-08-25T13:28:50.415Z,22.18
2022-08-25T13:31:22.150Z,21.98
2022-08-25T13:33:55.093Z,23.21
2022-08-25T13:36:46.955Z,21.99
2022-08-25T13:42:16.069Z,21.65
2022-08-25T13:44:52.359Z,21.13
2022-08-25T13:47:45.283Z,21.38
2022-08-25T13:50:20.173Z,19.90
2022-08-25T13:52:51.481Z,20.93
2022-08-25T13:55:27.732Z,20.24
2022-08-25T13:57:59.930Z,21.94
2022-08-25T14:00:35.182Z,21.01
2022-08-25T14:03:12.635Z,21.28
2022-08-25T14:05:43.156Z,21.57
2022-08-25T14:08:30.486Z,20.47
2022-08-25T14:11:10.365Z,20.67
2022-08-25T14:13:45.999Z,19.89
2022-08-25T14:16:20.145Z,19.94
2022-08-25T14:18:50.322Z,21.17
2022-08-25T14:21:20.090Z,19.27
2022-08-25T14:23:47.864Z,20.40
2022-08-25T14:26:16.667Z,19.89
2022-08-25T14:28:45.902Z,22.18
2022-08-25T14:31:19.925Z,20.50
2022-08-25T14:33:53.442Z,21.03
2022-08-25T14:36:21.381Z,20.29
2022-08-25T14:38:54.686Z,20.42
2022-08-25T14:41:24.638Z,20.20
2022-08-25T14:43:54.279Z,20.32
2022-08-25T14:46:24.188Z,20.14
2022-08-25T14:48:56.591Z,20.63
2022-08-25T14:51:25.975Z,21.13
2022-08-25T14:53:57.008Z,19.91
2022-08-25T14:56:24.854Z,21.43
2022-08-25T14:58:57.311Z,21.19
2022-08-25T15:01:30.130Z,20.82
2022-08-25T15:04:04.607Z,21.15
2022-08-25T15:06:34.453Z,19.62
2022-08-25T15:09:13.568Z,20.94
2022-08-25T15:11:43.847Z,19.88
2022-08-25T15:14:16.192Z,19.93
2022-08-25T15:16:47.400Z,20.16
2022-08-25T15:19:19.917Z,19.09
2022-08-25T15:21:49.528Z,18.93
2022-08-25T15:24:18.381Z,19.15
2022-08-25T15:29:27.905Z,20.02
2022-08-25T15:31:56.107Z,20.82
2022-08-25T15:34:23.959Z,21.21
2022-08-25T15:36:52.459Z,21.39
2022-08-25T15:39:21.190Z,20.73
2022-08-25T15:41:52.127Z,20.77
2022-08-25T15:44:20.671Z,22.22
2022-08-25T15:46:50.438Z,21.49
2022-08-25T15:49:20.284Z,21.79
2022-08-25T15:51:52.325Z,22.08
2022-08-25T15:54:20.662Z,22.86
2022-08-25T15:56:48.523Z,23.89
2022-08-25T15:59:16.990Z,23.55
2022-08-25T16:01:44.798Z,23.73
2022-08-25T16:04:16.448Z,22.90
2022-08-25T16:06:45.815Z,22.94
2022-08-25T16:09:15.463Z,22.81
2022-08-25T16:11:43.422Z,23.04
2022-08-25T16:14:12.753Z,22.50
2022-08-25T16:16:41.810Z,22.79
2022-08-25T16:19:10.287Z,23.47
2022-08-25T16:21:42.218Z,23.02
2022-08-25T16:24:15.129Z,21.40
2022-08-25T16:26:48.258Z,23.15
2022-08-25T16:29:16.429Z,22.58
2022-08-25T16:31:44.374Z,23.87
2022-08-25T16:34:13.129Z,20.94
2022-08-25T16:36:42.288Z,20.53
2022-08-25T16:39:11.289Z,23.52
2022-08-25T16:41:39.282Z,20.84
2022-08-25T16:44:11.098Z,22.78
2022-08-25T16:46:41.830Z,20.60
2022-08-25T16:49:13.377Z,19.58
2022-08-25T16:51:43.228Z,20.19
2022-08-25T16:54:29.306Z,21.55
2022-08-25T16:56:58.365Z,20.42
2022-08-25T16:59:26.861Z,21.35
2022-08-25T17:01:55.592Z,23.22
2022-08-25T17:04:32.148Z,22.35
2022-08-25T17:07:02.064Z,23.54
2022-08-25T17:09:30.706Z,22.71
2022-08-25T17:11:58.595Z,24.57
2022-08-25T17:14:26.937Z,23.45
2022-08-25T17:16:55.426Z,23.50
2022-08-25T17:19:24.833Z,24.60
2022-08-25T17:21:54.436Z,24.01
2022-08-25T17:24:29.213Z,23.79
2022-08-25T17:27:00.100Z,23.34
2022-08-25T17:29:29.468Z,23.50
2022-08-25T17:31:57.569Z,23.41
2022-08-25T17:34:25.908Z,23.92
2022-08-25T17:36:56.706Z,23.41
2022-08-25T17:39:26.613Z,22.49
2022-08-25T17:41:54.646Z,23.79
2022-08-25T17:44:22.467Z,22.67
2022-08-25T17:46:50.760Z,23.02
2022-08-25T17:49:19.732Z,23.84
2022-08-25T17:51:47.592Z,24.30
2022-08-25T17:54:15.563Z,25.02
2022-08-25T17:56:45.275Z,25.06
2022-08-25T17:59:13.837Z,24.17
2022-08-25T18:01:42.064Z,23.99
2022-08-25T18:04:17.768Z,24.54
2022-08-25T18:06:48.395Z,24.10
2022-08-25T18:09:17.529Z,24.20
2022-08-25T18:11:46.828Z,25.53
2022-08-25T18:14:16.760Z,24.90
2022-08-25T18:16:44.724Z,25.30
2022-08-25T18:19:14.278Z,25.66
2022-08-25T18:21:43.418Z,25.64
2022-08-25T18:24:13.356Z,25.73
2022-08-25T18:26:41.687Z,26.54
2022-08-25T18:29:13.185Z,27.82
2022-08-25T18:31:41.787Z,28.09
2022-08-25T18:34:11.423Z,27.37
2022-08-25T18:36:39.871Z,26.44
2022-08-25T18:39:26.468Z,26.18
2022-08-25T18:41:54.278Z,26.80
2022-08-25T18:44:23.846Z,26.83
2022-08-25T18:46:51.632Z,26.73
2022-08-25T18:49:22.130Z,26.63
2022-08-25T18:51:55.527Z,27.41
2022-08-25T18:54:23.917Z,26.62
2022-08-25T18:56:53.395Z,26.87
2022-08-25T18:59:24.064Z,26.99
2022-08-25T19:01:54.590Z,27.17
2022-08-25T19:04:31.209Z,26.72
2022-08-25T19:06:59.511Z,27.01
2022-08-25T19:09:27.332Z,27.06
2022-08-25T19:11:57.006Z,27.15
2022-08-25T19:14:26.840Z,27.94
2022-08-25T19:16:57.767Z,28.58
2022-08-25T19:19:25.732Z,28.46
2022-08-25T19:21:53.606Z,27.87
2022-08-25T19:24:21.545Z,27.80
2022-08-25T19:26:54.327Z,27.84
2022-08-25T19:29:23.784Z,28.23
2022-08-25T19:31:53.165Z,28.08
2022-08-25T19:34:28.101Z,28.43
2022-08-25T19:36:56.958Z,28.76
2022-08-25T19:39:26.412Z,29.21
2022-08-25T19:41:54.305Z,29.57
2022-08-25T19:44:22.633Z,29.02
2022-08-25T19:46:52.344Z,29.24
2022-08-25T19:49:25.577Z,29.32
2022-08-25T19:51:55.264Z,28.87
2022-08-25T19:54:26.242Z,29.67
2022-08-25T19:56:55.738Z,28.97
2022-08-25T19:59:26.688Z,28.71
2022-08-25T20:02:04.352Z,29.07
2022-08-25T20:04:32.457Z,29.80
2022-08-25T20:07:00.851Z,30.75
2022-08-25T20:09:39.187Z,31.05
2022-08-25T20:12:10.453Z,30.99
2022-08-25T20:14:38.631Z,32.17
2022-08-25T20:17:23.987Z,33.37
2022-08-25T20:19:55.840Z,33.47
2022-08-25T20:22:26.219Z,34.46
2022-08-25T20:24:56.187Z,34.66
2022-08-25T20:27:28.917Z,37.24
2022-08-25T20:29:56.733Z,37.51
2022-08-25T20:32:26.180Z,37.53
2022-08-25T20:34:56.930Z,34.65
2022-08-25T20:37:25.728Z,33.56
2022-08-25T20:39:53.952Z,34.07
2022-08-25T20:42:21.845Z,32.64
2022-08-25T20:44:49.628Z,34.11
2022-08-25T20:47:20.539Z,32.90
2022-08-25T20:49:50.279Z,32.72
2022-08-25T20:52:19.094Z,32.78
2022-08-25T20:54:49.321Z,32.06
2022-08-25T20:57:19.125Z,32.00
2022-08-25T20:59:54.396Z,32.51
2022-08-25T21:02:22.657Z,32.38
2022-08-25T21:04:52.282Z,32.04
2022-08-25T21:07:21.198Z,32.03
2022-08-25T21:09:52.131Z,31.99
2022-08-25T21:12:20.532Z,32.40
2022-08-25T21:14:49.204Z,32.69
2022-08-25T21:17:19.262Z,32.76
2022-08-25T21:22:17.669Z,38.30
2022-08-25T21:24:46.241Z,38.58
2022-08-25T21:27:14.685Z,37.53
2022-08-25T21:29:44.798Z,36.17
2022-08-25T21:32:23.813Z,36.21
2022-08-25T21:34:53.700Z,34.61
2022-08-25T21:37:22.899Z,34.89
2022-08-25T21:39:50.919Z,36.07
2022-08-25T21:42:20.057Z,37.30
2022-08-25T21:44:47.955Z,39.11
2022-08-25T21:47:15.961Z,41.55
2022-08-25T21:49:49.558Z,40.85
2022-08-25T21:52:17.785Z,39.29
2022-08-25T21:54:47.213Z,37.21
2022-08-25T21:57:17.832Z,36.03
2022-08-25T21:59:47.253Z,35.64
2022-08-25T22:02:19.225Z,34.86
2022-08-25T22:04:52.326Z,34.53
2022-08-25T22:07:22.125Z,34.48
2022-08-25T22:09:54.915Z,34.17
2022-08-25T22:12:23.322Z,34.52
2022-08-25T22:14:52.801Z,36.21
2022-08-25T22:17:24.244Z,34.78
2022-08-25T22:19:53.932Z,34.95
2022-08-25T22:22:22.741Z,34.68
2022-08-25T22:24:52.168Z,34.58
2022-08-25T22:27:23.579Z,36.23
2022-08-25T22:29:52.805Z,36.16
2022-08-25T22:32:21.056Z,35.59
2022-08-25T22:34:49.496Z,34.99
2022-08-25T22:37:18.149Z,35.14
2022-08-25T22:39:46.997Z,34.39
2022-08-25T22:42:15.342Z,35.13
2022-08-25T22:44:44.473Z,36.49
2022-08-25T22:47:12.422Z,35.72
2022-08-25T22:49:40.956Z,35.04
2022-08-25T22:52:12.875Z,34.84
2022-08-25T22:54:42.067Z,34.90
2022-08-25T22:57:10.329Z,34.33
2022-08-25T22:59:39.146Z,34.73
2022-08-25T23:02:09.230Z,34.67
2022-08-25T23:04:41.408Z,35.06
2022-08-25T23:07:11.869Z,34.98
2022-08-25T23:09:39.878Z,36.85
2022-08-25T23:12:08.239Z,41.88
2022-08-25T23:14:37.855Z,45.68
2022-08-25T23:17:11.254Z,45.44
2022-08-25T23:19:39.004Z,43.80
2022-08-25T23:22:09.370Z,41.80
2022-08-25T23:24:40.183Z,39.71
2022-08-25T23:27:13.319Z,39.39
2022-08-25T23:29:43.778Z,41.97
2022-08-25T23:32:14.552Z,42.01
2022-08-25T23:34:46.773Z,41.02
2022-08-25T23:37:15.986Z,39.77
2022-08-25T23:39:49.558Z,41.65
2022-08-25T23:42:19.165Z,40.26
2022-08-25T23:44:47.140Z,39.69
2022-08-25T23:47:16.819Z,40.40
2022-08-25T23:49:46.052Z,41.71
2022-08-25T23:52:17.133Z,40.37
2022-08-25T23:54:45.372Z,39.43
2022-08-25T23:57:13.157Z,40.81
2022-08-25T23:59:43.341Z,42.30
